createdAt,value
2018-12-16T00:02:09.107Z,43.24
2018-12-16T00:04:35.391Z,43.29
2018-12-16T00:07:02.164Z,43.26
2018-12-16T00:09:28.106Z,42.99
2018-12-16T00:11:55.096Z,42.98
2018-12-16T00:14:21.033Z,42.99
2018-12-16T00:16:47.019Z,42.96
2018-12-16T00:19:12.930Z,42.94
2018-12-16T00:21:39.762Z,42.97
2018-12-16T00:24:05.707Z,43.08
2018-12-16T00:26:37.832Z,43.09
2018-12-16T00:29:03.838Z,43.07
2018-12-16T00:31:29.789Z,42.97
2018-12-16T00:33:56.651Z,42.90
2018-12-16T00:36:22.595Z,42.97
2018-12-16T00:38:49.357Z,42.76
2018-12-16T00:41:16.119Z,42.90
2018-12-16T00:43:42.013Z,42.85
2018-12-16T00:46:07.954Z,42.80
2018-12-16T00:48:33.880Z,42.78
2018-12-16T00:51:01.785Z,42.47
2018-12-16T00:53:27.758Z,42.54
2018-12-16T00:55:53.704Z,42.72
2018-12-16T00:58:19.879Z,42.62
2018-12-16T01:00:45.821Z,42.42
2018-12-16T01:03:11.758Z,42.89
2018-12-16T01:05:38.539Z,42.37
2018-12-16T01:08:05.549Z,42.56
2018-12-16T01:10:32.063Z,42.33
2018-12-16T01:12:58.960Z,42.37
2018-12-16T01:15:24.965Z,42.43
2018-12-16T01:17:50.905Z,42.37
2018-12-16T01:20:16.844Z,42.23
2018-12-16T01:22:43.650Z,42.01
2018-12-16T01:25:09.843Z,42.07
2018-12-16T01:27:35.782Z,42.27
2018-12-16T01:30:01.729Z,42.06
2018-12-16T01:32:27.668Z,42.10
2018-12-16T01:34:53.618Z,42.16
2018-12-16T01:37:19.556Z,41.88
2018-12-16T01:39:45.489Z,41.98
2018-12-16T01:42:11.426Z,41.94
2018-12-16T01:44:44.273Z,42.07
2018-12-16T01:47:10.204Z,41.84
2018-12-16T01:49:36.126Z,42.03
2018-12-16T01:52:02.140Z,42.00
2018-12-16T01:54:28.171Z,42.16
2018-12-16T01:56:54.141Z,41.93
2018-12-16T01:59:21.104Z,41.84
2018-12-16T02:01:54.053Z,41.68
2018-12-16T02:04:20.006Z,41.83
2018-12-16T02:06:52.027Z,41.77
2018-12-16T02:09:17.965Z,41.79
2018-12-16T02:11:44.743Z,41.68
2018-12-16T02:14:10.693Z,41.49
2018-12-16T02:16:36.762Z,41.54
2018-12-16T02:19:02.740Z,41.46
2018-12-16T02:21:29.720Z,41.40
2018-12-16T02:23:55.659Z,41.35
2018-12-16T02:26:21.644Z,41.39
2018-12-16T02:28:48.468Z,41.43
2018-12-16T02:31:14.504Z,41.25
2018-12-16T02:33:41.366Z,41.31
2018-12-16T02:36:07.283Z,41.16
2018-12-16T02:38:34.164Z,41.09
2018-12-16T02:41:02.111Z,41.04
2018-12-16T02:43:29.096Z,40.95
2018-12-16T02:45:55.419Z,41.06
2018-12-16T02:48:22.199Z,40.84
2018-12-16T02:50:48.153Z,41.08
2018-12-16T02:53:15.024Z,40.93
2018-12-16T02:55:41.860Z,40.87
2018-12-16T02:58:08.663Z,41.04
2018-12-16T03:00:35.611Z,40.82
2018-12-16T03:03:01.586Z,40.70
2018-12-16T03:05:28.410Z,40.72
2018-12-16T03:07:55.228Z,40.80
2018-12-16T03:10:21.154Z,40.67
2018-12-16T03:12:47.928Z,40.64
2018-12-16T03:15:13.874Z,40.67
2018-12-16T03:17:39.868Z,40.86
2018-12-16T03:20:06.877Z,40.75
2018-12-16T03:22:33.943Z,40.76
2018-12-16T03:24:59.897Z,40.73
2018-12-16T03:27:25.837Z,40.56
2018-12-16T03:29:51.805Z,40.35
2018-12-16T03:32:18.758Z,40.67
2018-12-16T03:34:44.793Z,40.54
2018-12-16T03:37:10.724Z,40.82
2018-12-16T03:39:36.669Z,40.92
2018-12-16T03:42:02.610Z,40.97
2018-12-16T03:44:28.552Z,40.77
2018-12-16T03:46:54.511Z,40.96
2018-12-16T03:49:20.457Z,41.01
2018-12-16T03:51:46.408Z,41.00
2018-12-16T03:54:12.360Z,41.07
2018-12-16T03:56:39.339Z,40.98
2018-12-16T03:59:11.152Z,41.17
2018-12-16T04:01:37.108Z,40.80
2018-12-16T04:04:04.032Z,41.13
2018-12-16T04:06:29.999Z,41.00
2018-12-16T04:08:56.837Z,40.97
2018-12-16T04:11:23.668Z,41.01
2018-12-16T04:13:50.412Z,41.03
2018-12-16T04:16:16.393Z,41.57
2018-12-16T04:18:42.331Z,40.99
2018-12-16T04:21:08.264Z,41.03
2018-12-16T04:23:34.210Z,41.05
2018-12-16T04:26:00.769Z,41.01
2018-12-16T04:28:26.854Z,41.00
2018-12-16T04:30:52.787Z,41.13
2018-12-16T04:33:18.769Z,41.57
2018-12-16T04:35:44.711Z,41.18
2018-12-16T04:38:11.552Z,41.18
2018-12-16T04:40:37.493Z,41.02
2018-12-16T04:43:03.434Z,41.05
2018-12-16T04:45:29.397Z,41.31
2018-12-16T04:47:56.183Z,41.37
2018-12-16T04:50:22.120Z,41.43
2018-12-16T04:52:48.131Z,41.56
2018-12-16T04:55:15.067Z,41.10
2018-12-16T04:57:41.014Z,41.24
2018-12-16T05:00:06.946Z,41.46
2018-12-16T05:02:39.804Z,41.40
2018-12-16T05:05:05.750Z,41.07
2018-12-16T05:07:31.851Z,41.33
2018-12-16T05:09:59.830Z,41.08
2018-12-16T05:12:25.778Z,41.31
2018-12-16T05:14:51.736Z,41.18
2018-12-16T05:17:17.679Z,41.03
2018-12-16T05:19:43.622Z,41.09
2018-12-16T05:22:09.581Z,41.15
2018-12-16T05:24:35.522Z,41.16
2018-12-16T05:27:01.474Z,41.03
2018-12-16T05:29:27.409Z,41.10
2018-12-16T05:31:53.339Z,41.15
2018-12-16T05:34:19.348Z,41.08
2018-12-16T05:36:46.195Z,41.09
2018-12-16T05:39:12.132Z,41.02
2018-12-16T05:41:38.091Z,40.81
2018-12-16T05:44:04.066Z,40.92
2018-12-16T05:46:30.024Z,41.05
2018-12-16T05:48:57.010Z,41.08
2018-12-16T05:51:22.944Z,41.10
2018-12-16T05:53:49.813Z,41.09
2018-12-16T05:56:16.635Z,40.84
2018-12-16T05:58:43.412Z,41.19
2018-12-16T06:01:10.207Z,41.21
2018-12-16T06:03:37.100Z,40.88
2018-12-16T06:06:03.945Z,41.08
2018-12-16T06:08:29.887Z,40.88
2018-12-16T06:10:56.836Z,40.96
2018-12-16T06:13:23.738Z,41.06
2018-12-16T06:15:50.768Z,40.73
2018-12-16T06:18:16.713Z,40.81
2018-12-16T06:20:43.811Z,40.78
2018-12-16T06:23:10.637Z,40.74
2018-12-16T06:25:37.351Z,40.98
2018-12-16T06:28:03.291Z,40.59
2018-12-16T06:30:31.883Z,40.80
2018-12-16T06:32:58.768Z,40.49
2018-12-16T06:35:24.706Z,40.54
2018-12-16T06:37:51.562Z,40.58
2018-12-16T06:40:17.525Z,40.27
2018-12-16T06:42:44.350Z,40.40
2018-12-16T06:45:10.571Z,40.61
2018-12-16T06:47:37.349Z,40.41
2018-12-16T06:50:05.059Z,40.72
2018-12-16T06:52:31.421Z,40.46
2018-12-16T06:54:57.374Z,40.27
2018-12-16T06:57:24.230Z,40.23
2018-12-16T06:59:51.033Z,40.28
2018-12-16T07:02:17.820Z,40.09
2018-12-16T07:04:44.569Z,40.16
2018-12-16T07:07:10.506Z,40.16
2018-12-16T07:09:37.379Z,39.85
2018-12-16T07:12:03.397Z,39.93
2018-12-16T07:14:30.923Z,39.82
2018-12-16T07:16:57.763Z,39.85
2018-12-16T07:19:24.553Z,39.80
2018-12-16T07:21:51.475Z,39.90
2018-12-16T07:24:18.437Z,39.98
2018-12-16T07:26:44.449Z,39.86
2018-12-16T07:29:11.458Z,39.62
2018-12-16T07:31:37.410Z,39.91
2018-12-16T07:34:03.345Z,39.64
2018-12-16T07:36:30.734Z,39.86
2018-12-16T07:38:57.801Z,39.71
2018-12-16T07:41:24.593Z,39.90
2018-12-16T07:43:51.541Z,39.69
2018-12-16T07:46:17.513Z,39.68
2018-12-16T07:48:44.380Z,39.69
2018-12-16T07:51:11.131Z,40.15
2018-12-16T07:53:37.934Z,39.64
2018-12-16T07:56:03.969Z,39.76
2018-12-16T07:58:29.981Z,39.67
2018-12-16T08:00:57.493Z,39.50
2018-12-16T08:03:24.472Z,39.67
2018-12-16T08:05:50.458Z,39.94
2018-12-16T08:08:16.395Z,39.87
2018-12-16T08:10:42.335Z,39.59
2018-12-16T08:13:08.280Z,39.75
2018-12-16T08:15:34.214Z,39.92
2018-12-16T08:18:01.089Z,39.59
2018-12-16T08:20:27.093Z,39.62
2018-12-16T08:22:53.031Z,39.87
2018-12-16T08:25:18.965Z,39.67
2018-12-16T08:27:45.019Z,39.66
2018-12-16T08:30:10.964Z,39.66
2018-12-16T08:32:36.950Z,39.69
2018-12-16T08:35:03.944Z,39.92
2018-12-16T08:37:29.889Z,39.80
2018-12-16T08:39:55.833Z,39.82
2018-12-16T08:42:21.785Z,39.97
2018-12-16T08:44:48.631Z,39.56
2018-12-16T08:47:14.580Z,39.54
2018-12-16T08:49:40.532Z,39.49
2018-12-16T08:52:07.335Z,39.62
2018-12-16T08:54:34.081Z,39.32
2018-12-16T08:57:00.018Z,39.28
2018-12-16T08:59:25.993Z,39.54
2018-12-16T09:01:51.942Z,39.41
2018-12-16T09:04:18.329Z,39.25
2018-12-16T09:06:44.274Z,39.45
2018-12-16T09:09:10.962Z,39.31
2018-12-16T09:11:36.918Z,39.36
2018-12-16T09:14:02.902Z,39.14
2018-12-16T09:16:28.841Z,39.17
2018-12-16T09:18:54.794Z,39.28
2018-12-16T09:21:20.727Z,39.41
2018-12-16T09:23:46.674Z,39.38
2018-12-16T09:26:12.666Z,39.17
2018-12-16T09:28:39.574Z,39.27
2018-12-16T09:31:05.510Z,39.44
2018-12-16T09:33:32.311Z,39.31
2018-12-16T09:35:58.317Z,39.37
2018-12-16T09:38:24.350Z,39.44
2018-12-16T09:40:50.414Z,39.41
2018-12-16T09:43:16.390Z,39.51
2018-12-16T09:45:49.291Z,39.26
2018-12-16T09:48:10.494Z,39.33
2018-12-16T09:50:36.500Z,38.96
2018-12-16T09:53:02.478Z,39.16
2018-12-16T09:55:29.428Z,39.14
2018-12-16T09:57:56.224Z,39.25
2018-12-16T10:00:22.164Z,39.22
2018-12-16T10:02:48.166Z,39.17
2018-12-16T10:05:14.095Z,39.11
2018-12-16T10:07:40.087Z,39.10
2018-12-16T10:10:06.881Z,39.08
2018-12-16T10:12:33.785Z,38.97
2018-12-16T10:14:59.730Z,38.72
2018-12-16T10:17:25.847Z,38.78
2018-12-16T10:19:51.772Z,38.74
2018-12-16T10:22:18.594Z,38.82
2018-12-16T10:24:51.085Z,38.76
2018-12-16T10:27:13.616Z,38.52
2018-12-16T10:29:39.692Z,38.87
2018-12-16T10:32:05.678Z,38.84
2018-12-16T10:34:31.610Z,38.56
2018-12-16T10:36:57.540Z,39.22
2018-12-16T10:39:24.374Z,38.34
2018-12-16T10:41:50.303Z,38.25
2018-12-16T10:44:17.274Z,38.37
2018-12-16T10:46:43.203Z,38.28
2018-12-16T10:49:09.137Z,38.09
2018-12-16T10:51:36.154Z,38.13
2018-12-16T10:54:02.536Z,38.06
2018-12-16T10:56:28.443Z,37.99
2018-12-16T10:58:54.395Z,38.24
2018-12-16T11:01:27.333Z,38.09
2018-12-16T11:03:53.255Z,37.96
2018-12-16T11:06:19.272Z,38.12
2018-12-16T11:08:45.750Z,38.10
2018-12-16T11:11:12.540Z,38.12
2018-12-16T11:13:38.473Z,37.98
2018-12-16T11:16:05.383Z,38.17
2018-12-16T11:18:31.315Z,38.11
2018-12-16T11:20:57.250Z,38.25
2018-12-16T11:23:24.176Z,37.99
2018-12-16T11:25:50.118Z,37.95
2018-12-16T11:28:16.067Z,38.22
2018-12-16T11:30:42.003Z,38.09
2018-12-16T11:33:08.066Z,38.00
2018-12-16T11:35:34.067Z,38.11
2018-12-16T11:38:00.697Z,38.29
2018-12-16T11:40:27.644Z,38.11
2018-12-16T11:42:54.464Z,38.21
2018-12-16T11:45:20.481Z,38.02
2018-12-16T11:47:46.636Z,38.05
2018-12-16T11:50:12.651Z,38.14
2018-12-16T11:52:38.732Z,37.97
2018-12-16T11:55:04.706Z,38.26
2018-12-16T11:57:31.695Z,38.19
2018-12-16T11:59:57.635Z,38.19
2018-12-16T12:02:23.565Z,38.10
2018-12-16T12:04:50.427Z,38.02
2018-12-16T12:07:16.405Z,38.15
2018-12-16T12:09:43.340Z,38.13
2018-12-16T12:12:10.132Z,37.95
2018-12-16T12:14:36.170Z,38.19
2018-12-16T12:17:02.124Z,37.93
2018-12-16T12:19:31.171Z,37.84
2018-12-16T12:21:57.108Z,37.66
2018-12-16T12:24:23.882Z,38.06
2018-12-16T12:26:49.941Z,37.95
2018-12-16T12:29:15.998Z,38.21
2018-12-16T12:31:42.151Z,38.13
2018-12-16T12:34:08.139Z,38.01
2018-12-16T12:36:34.241Z,38.02
2018-12-16T12:39:01.320Z,38.19
2018-12-16T12:41:27.245Z,37.95
2018-12-16T12:43:53.318Z,38.00
2018-12-16T12:46:19.264Z,37.90
2018-12-16T12:48:45.210Z,37.99
2018-12-16T12:51:11.194Z,37.91
2018-12-16T12:53:37.142Z,37.87
2018-12-16T12:56:03.090Z,37.90
2018-12-16T12:58:29.019Z,37.71
2018-12-16T13:00:55.082Z,37.89
2018-12-16T13:03:21.032Z,37.79
2018-12-16T13:05:47.034Z,37.76
2018-12-16T13:08:13.894Z,38.15
2018-12-16T13:10:40.071Z,38.18
2018-12-16T13:13:07.131Z,37.83
2018-12-16T13:15:33.268Z,37.85
2018-12-16T13:17:59.256Z,37.79
2018-12-16T13:20:25.218Z,38.44
2018-12-16T13:22:51.283Z,39.04
2018-12-16T13:25:23.530Z,38.75
2018-12-16T13:27:49.572Z,38.60
2018-12-16T13:30:15.680Z,38.35
2018-12-16T13:32:41.786Z,38.43
2018-12-16T13:35:07.869Z,37.59
2018-12-16T13:37:33.846Z,37.05
2018-12-16T13:39:59.963Z,37.12
2018-12-16T13:42:25.926Z,36.92
2018-12-16T13:44:52.057Z,37.26
2018-12-16T13:47:19.065Z,37.50
2018-12-16T13:49:44.982Z,37.28
2018-12-16T13:52:11.051Z,37.10
2018-12-16T13:54:37.225Z,37.43
2018-12-16T13:57:03.307Z,37.39
2018-12-16T13:59:29.319Z,37.27
2018-12-16T14:01:55.417Z,37.51
2018-12-16T14:04:21.506Z,37.37
2018-12-16T14:06:47.501Z,37.38
2018-12-16T14:09:14.886Z,37.47
2018-12-16T14:11:40.865Z,37.32
2018-12-16T14:14:06.861Z,37.41
2018-12-16T14:16:32.827Z,37.32
2018-12-16T14:18:58.775Z,37.33
2018-12-16T14:21:24.742Z,37.53
2018-12-16T14:23:51.552Z,37.51
2018-12-16T14:26:17.538Z,37.56
2018-12-16T14:28:43.464Z,37.49
2018-12-16T14:31:10.267Z,37.45
2018-12-16T14:33:37.241Z,37.65
2018-12-16T14:36:03.177Z,37.76
2018-12-16T14:38:29.353Z,37.75
2018-12-16T14:40:55.283Z,37.75
2018-12-16T14:43:21.213Z,38.03
2018-12-16T14:45:47.291Z,37.79
2018-12-16T14:48:13.380Z,37.95
2018-12-16T14:50:39.409Z,38.05
2018-12-16T14:53:06.447Z,38.08
2018-12-16T14:55:33.541Z,37.89
2018-12-16T14:58:01.366Z,37.97
2018-12-16T15:00:27.334Z,38.24
2018-12-16T15:02:53.265Z,38.00
2018-12-16T15:05:19.198Z,38.03
2018-12-16T15:07:45.137Z,38.26
2018-12-16T15:10:11.081Z,38.27
2018-12-16T15:12:36.999Z,38.33
2018-12-16T15:15:03.053Z,38.18
2018-12-16T15:17:29.013Z,38.34
2018-12-16T15:19:55.104Z,38.13
2018-12-16T15:22:22.069Z,38.19
2018-12-16T15:24:48.004Z,38.28
2018-12-16T15:27:13.941Z,38.37
2018-12-16T15:29:40.820Z,38.36
2018-12-16T15:32:07.760Z,38.35
2018-12-16T15:34:34.631Z,38.29
2018-12-16T15:37:01.469Z,38.46
2018-12-16T15:39:27.465Z,38.41
2018-12-16T15:41:53.431Z,38.54
2018-12-16T15:44:19.410Z,38.41
2018-12-16T15:46:45.398Z,38.49
2018-12-16T15:49:11.330Z,38.61
2018-12-16T15:51:37.273Z,38.28
2018-12-16T15:54:03.203Z,38.52
2018-12-16T15:56:30.937Z,38.42
2018-12-16T15:58:57.890Z,38.73
2018-12-16T16:01:23.827Z,38.46
2018-12-16T16:03:49.810Z,38.43
2018-12-16T16:06:16.772Z,38.40
2018-12-16T16:08:42.719Z,38.41
2018-12-16T16:11:08.650Z,38.08
2018-12-16T16:13:34.588Z,38.20
2018-12-16T16:16:01.822Z,38.37
2018-12-16T16:18:27.927Z,38.10
2018-12-16T16:20:53.870Z,38.35
2018-12-16T16:23:19.848Z,38.33
2018-12-16T16:25:45.784Z,38.11
2018-12-16T16:28:12.699Z,38.31
2018-12-16T16:30:39.492Z,38.28
2018-12-16T16:33:05.549Z,38.12
2018-12-16T16:35:31.479Z,38.33
2018-12-16T16:38:00.775Z,38.11
2018-12-16T16:40:27.843Z,38.20
2018-12-16T16:42:54.769Z,38.54
2018-12-16T16:45:20.745Z,38.49
2018-12-16T16:47:46.726Z,38.38
2018-12-16T16:50:12.756Z,38.33
2018-12-16T16:52:38.722Z,38.44
2018-12-16T16:55:04.701Z,38.40
2018-12-16T16:57:31.146Z,38.48
2018-12-16T16:59:57.226Z,38.37
2018-12-16T17:02:23.186Z,38.42
2018-12-16T17:04:49.115Z,38.56
2018-12-16T17:07:15.327Z,38.63
2018-12-16T17:09:41.399Z,38.49
2018-12-16T17:12:07.387Z,38.47
2018-12-16T17:14:34.440Z,38.41
2018-12-16T17:17:01.603Z,38.45
2018-12-16T17:19:27.552Z,38.25
2018-12-16T17:21:53.625Z,38.36
2018-12-16T17:24:19.917Z,38.27
2018-12-16T17:26:45.973Z,38.20
2018-12-16T17:29:12.792Z,38.05
2018-12-16T17:31:39.608Z,38.31
2018-12-16T17:34:05.558Z,37.84
2018-12-16T17:36:31.621Z,38.28
2018-12-16T17:38:57.901Z,38.12
2018-12-16T17:41:23.835Z,38.38
2018-12-16T17:43:49.868Z,38.23
2018-12-16T17:46:15.802Z,38.06
2018-12-16T17:48:42.719Z,38.24
2018-12-16T17:51:08.670Z,38.33
2018-12-16T17:53:35.426Z,38.54
2018-12-16T17:56:01.711Z,38.23
2018-12-16T17:58:27.806Z,38.21
2018-12-16T18:00:54.679Z,38.22
2018-12-16T18:03:20.630Z,38.34
2018-12-16T18:05:46.551Z,38.31
2018-12-16T18:08:12.554Z,38.29
2018-12-16T18:10:38.612Z,38.43
2018-12-16T18:13:05.541Z,38.41
2018-12-16T18:15:31.843Z,38.25
2018-12-16T18:17:57.787Z,38.25
2018-12-16T18:20:23.768Z,38.48
2018-12-16T18:22:50.741Z,38.36
2018-12-16T18:25:16.697Z,38.51
2018-12-16T18:27:49.620Z,38.45
2018-12-16T18:30:15.546Z,38.54
2018-12-16T18:32:41.484Z,38.43
2018-12-16T18:35:07.689Z,38.39
2018-12-16T18:37:34.800Z,38.62
2018-12-16T18:40:01.885Z,38.36
2018-12-16T18:42:27.880Z,38.59
2018-12-16T18:44:53.804Z,38.44
2018-12-16T18:47:19.748Z,38.72
2018-12-16T18:49:45.714Z,38.38
2018-12-16T18:52:13.142Z,38.55
2018-12-16T18:54:40.135Z,38.43
2018-12-16T18:57:07.368Z,38.68
2018-12-16T18:59:33.726Z,38.39
2018-12-16T19:01:59.773Z,38.46
2018-12-16T19:04:25.718Z,38.36
2018-12-16T19:06:52.692Z,38.55
2018-12-16T19:09:19.656Z,38.33
2018-12-16T19:11:45.610Z,38.11
2018-12-16T19:14:11.570Z,38.35
2018-12-16T19:16:37.530Z,38.25
2018-12-16T19:19:04.702Z,38.30
2018-12-16T19:21:31.457Z,38.36
2018-12-16T19:23:58.319Z,38.28
2018-12-16T19:26:24.388Z,38.39
2018-12-16T19:28:50.326Z,38.23
2018-12-16T19:31:16.679Z,38.25
2018-12-16T19:33:42.631Z,38.25
2018-12-16T19:36:08.798Z,38.31
2018-12-16T19:38:35.864Z,38.47
2018-12-16T19:41:02.857Z,38.51
2018-12-16T19:43:28.868Z,38.27
2018-12-16T19:45:55.847Z,38.20
2018-12-16T19:48:21.958Z,38.33
2018-12-16T19:50:48.192Z,38.67
2018-12-16T19:53:15.621Z,38.70
2018-12-16T19:55:41.653Z,38.47
2018-12-16T19:58:07.951Z,38.47
2018-12-16T20:00:33.941Z,38.41
2018-12-16T20:03:01.171Z,38.38
2018-12-16T20:05:27.114Z,38.61
2018-12-16T20:07:53.100Z,38.51
2018-12-16T20:10:19.514Z,38.47
2018-12-16T20:12:45.472Z,38.77
2018-12-16T20:15:11.465Z,38.73
2018-12-16T20:17:38.429Z,38.75
2018-12-16T20:20:05.537Z,39.02
2018-12-16T20:22:31.484Z,38.66
2018-12-16T20:24:57.580Z,39.23
2018-12-16T20:27:24.564Z,38.98
2018-12-16T20:29:50.510Z,38.89
2018-12-16T20:32:16.637Z,39.09
2018-12-16T20:34:42.704Z,38.99
2018-12-16T20:37:09.649Z,39.03
2018-12-16T20:39:35.668Z,39.31
2018-12-16T20:42:01.693Z,39.45
2018-12-16T20:44:27.897Z,39.45
2018-12-16T20:46:53.905Z,39.52
2018-12-16T20:49:20.029Z,39.30
2018-12-16T20:51:45.973Z,39.37
2018-12-16T20:54:12.088Z,39.60
2018-12-16T20:56:38.215Z,39.56
2018-12-16T20:59:04.735Z,39.65
2018-12-16T21:01:31.647Z,39.60
2018-12-16T21:03:57.811Z,39.66
2018-12-16T21:06:23.969Z,39.70
2018-12-16T21:08:49.919Z,39.44
2018-12-16T21:11:22.029Z,39.52
2018-12-16T21:13:55.249Z,39.75
2018-12-16T21:16:27.196Z,39.75
2018-12-16T21:18:54.137Z,39.70
2018-12-16T21:21:20.143Z,39.67
2018-12-16T21:23:46.149Z,39.56
2018-12-16T21:26:13.047Z,39.46
2018-12-16T21:28:40.035Z,39.74
2018-12-16T21:31:05.949Z,39.75
2018-12-16T21:33:32.824Z,39.60
2018-12-16T21:35:59.574Z,39.64
2018-12-16T21:38:26.359Z,39.69
2018-12-16T21:40:52.297Z,39.76
2018-12-16T21:43:18.222Z,40.10
2018-12-16T21:45:45.055Z,39.80
2018-12-16T21:48:11.841Z,40.08
2018-12-16T21:50:38.595Z,39.78
2018-12-16T21:53:04.704Z,40.04
2018-12-16T21:55:31.554Z,39.95
2018-12-16T21:57:57.491Z,39.94
2018-12-16T22:00:24.349Z,40.05
2018-12-16T22:02:51.232Z,39.75
2018-12-16T22:05:19.296Z,39.79
2018-12-16T22:07:45.891Z,40.23
2018-12-16T22:10:11.819Z,40.26
2018-12-16T22:12:37.793Z,40.27
2018-12-16T22:15:03.726Z,40.08
2018-12-16T22:17:29.669Z,40.54
2018-12-16T22:19:55.594Z,40.37
2018-12-16T22:22:22.460Z,40.49
2018-12-16T22:24:48.389Z,40.16
2018-12-16T22:27:14.315Z,40.29
2018-12-16T22:29:41.081Z,40.26
2018-12-16T22:32:07.161Z,40.35
2018-12-16T22:34:34.047Z,40.67
2018-12-16T22:37:00.722Z,40.61
2018-12-16T22:39:26.707Z,40.42
2018-12-16T22:41:53.659Z,40.57
2018-12-16T22:44:19.636Z,40.31
2018-12-16T22:46:45.700Z,40.39
2018-12-16T22:49:11.692Z,40.34
2018-12-16T22:51:37.624Z,40.31
2018-12-16T22:54:03.553Z,40.46
2018-12-16T22:56:29.472Z,40.37
2018-12-16T22:58:55.416Z,40.45
2018-12-16T23:01:21.493Z,40.43
2018-12-16T23:03:47.465Z,40.57
2018-12-16T23:06:13.406Z,40.46
2018-12-16T23:08:39.350Z,40.54
2018-12-16T23:11:05.320Z,40.36
2018-12-16T23:13:31.356Z,40.45
2018-12-16T23:15:57.283Z,40.49
2018-12-16T23:18:23.227Z,40.32
2018-12-16T23:20:49.257Z,40.46
2018-12-16T23:23:15.191Z,40.36
2018-12-16T23:25:41.130Z,40.41
2018-12-16T23:28:07.088Z,40.23
2018-12-16T23:30:33.071Z,40.49
2018-12-16T23:32:59.002Z,40.83
2018-12-16T23:35:24.973Z,40.39
2018-12-16T23:37:51.957Z,40.52
2018-12-16T23:40:17.963Z,40.75
2018-12-16T23:42:43.950Z,40.47
2018-12-16T23:45:09.965Z,40.59
2018-12-16T23:47:36.876Z,40.49
2018-12-16T23:50:03.682Z,40.59
2018-12-16T23:52:29.650Z,40.51
2018-12-16T23:54:55.576Z,40.75
2018-12-16T23:57:21.557Z,40.62
2018-12-16T23:59:47.651Z,40.88
